Op dit moment wordt er hard gewerkt aan deze versie van Weerstation-Wijk.nl
Het kan zijn dat er dingen nog niet helemaal kloppen of goed werken.

We konden geen weer-waarchuwingen ophalen. Ga rechtstreeks naar de Meteoalarm site : www.meteoalarm.eu en controleer daar .


Weerstation-Wijk.nl. Voor het weer van Wijk bij Duurstede en omstreken



Bezoek ook deze websites:

Template documentation
and downloads

And another site



METAR rapporten vliegvelden

   
EHVK - Volkel Rnlafb, Netherlands
Afstand tot: ZW 18 km
Gewijzigd: Feb 24 2024 4:55 pm
Grotendeels bewolkt  
Grotendeels bewolkt  
   Wind: ZZW 18.5 km/h
Wind: ZZW 18.5 km/h
Temperatuur: 7°C
Voelt als: 4°C
Dauwpunt: 2°C
Vochtigheid: 71%
Barometer: 1000 hPa
Bewolking: Grotendeels bewolkt
Zicht: meer dan 10 km
Bewolking: Licht bewolkt 2300 ft,
Gedeeltelijk bewolkt 2600 ft,
Grotendeels bewolkt 3000 ft
EHVK 241555Z AUTO 21010KT 170V250 9999 FEW023 SCT026 BKN030 07/02 Q1000 BLU
EDLV - Niederrhein, Germany
Afstand tot: ZO 25 km
Gewijzigd: Feb 24 2024 4:50 pm
Gedeeltelijk bewolkt  
Gedeeltelijk bewolkt  
   Wind: ZZW 22.2 km/h
Wind: ZZW 22.2 km/h
Temperatuur: 6°C
Voelt als: 2°C
Dauwpunt: 2°C
Vochtigheid: 76%
Barometer: 1001 hPa
Bewolking: Gedeeltelijk bewolkt
Zicht: meer dan 10 km
Bewolking: Gedeeltelijk bewolkt 2200 ft
EDLV 241550Z 20012KT 9999 SCT022 06/02 Q1001
EHDL - Deelen Rnlafb, Netherlands
Afstand tot: N 35 km
Gewijzigd: Feb 24 2024 4:55 pm
Bewolking  
Bewolking  
   Wind: ZZW 14.8 km/h
Wind: ZZW 14.8 km/h
Temperatuur: 6°C
Voelt als: 3°C
Dauwpunt: 2°C
Vochtigheid: 76%
Barometer: 1000 hPa
Bewolking: Bewolking
Zicht: meer dan 10 km
Bewolking: Licht bewolkt 4600 ft,
Grotendeels bewolkt 6300 ft,
Bewolking 7000 ft
EHDL 241555Z AUTO 20008KT 140V240 9999 FEW046 BKN063 OVC070 06/02 Q1000 BLU
EHEH - Eindhoven Rnlafb, Netherlands
Afstand tot: ZW 48 km
Gewijzigd: Feb 24 2024 4:55 pm
Licht bewolkt  
Licht bewolkt  
   Wind: ZZW 14.8 km/h
Wind: ZZW 14.8 km/h
Temperatuur: 7°C
Voelt als: 4°C
Dauwpunt: 2°C
Vochtigheid: 71%
Barometer: 1000 hPa
Bewolking: Licht bewolkt
Zicht: meer dan 10 km
Bewolking: Licht bewolkt 2800 ft
EHEH 241555Z AUTO 20008KT 180V240 9999 FEW028 07/02 Q1000 BLU NOSIG
EHGR - Gilze-Rijen Rnla, Netherlands
Afstand tot: WZW 70 km
Gewijzigd: Feb 24 2024 4:55 pm
Bewolking  
Bewolking  
   Wind: ZZW 16.7 km/h
Wind: ZZW 16.7 km/h
Temperatuur: 7°C
Voelt als: 4°C
Dauwpunt: 2°C
Vochtigheid: 71%
Barometer: 1000 hPa
Bewolking: Bewolking
Zicht: meer dan 10 km
Bewolking: Grotendeels bewolkt 3600 ft,
Grotendeels bewolkt 4100 ft,
Bewolking 21000 ft
EHGR 241555Z AUTO 20009KT 160V230 9999 BKN036 BKN041 OVC210 07/02 Q1000 BLU
EBBL - Kleine-Brogel(Ba, Belgium
Afstand tot: ZZW 71 km
Gewijzigd: Feb 24 2024 4:25 pm
Bewolking  
Bewolking  
   Wind: ZW 18.5 km/h
Wind: ZW 18.5 km/h
Temperatuur: 7°C
Voelt als: 4°C
Dauwpunt: 1°C
Vochtigheid: 66%
Barometer: 1000 hPa
Bewolking: Bewolking
Zicht: meer dan 10 km
Bewolking: Bewolking 4100 ft
EBBL 241525Z AUTO 22010KT 9999 OVC041/// 07/01 Q1000 BLU

Script ontwikkeld door  Saratoga-weather.org Aangepast voor de template door  Weerstation Leuven

U vindt ons ook hier:

UK Metoffice

WeatherCloud

AWEKAS

Apparatuur in gebruik:

Weerstation
Davis VP2 + EU Wireless

Weerprogramma
Weather Display

Webleverancier
WebReus.nl

Davis VP2 + EU Wireless

Weather Display

WebReus.nl


Weerstation-Wijk.nl. Voor het weer van Wijk bij Duurstede en omstreken